sensor_id;sensor_type;location;lat;lon;timestamp;P1;durP1;ratioP1;P2;durP2;ratioP2
10851;SDS011;5479;52.046;6.314;2024-03-17T00:01:16;9.00;;;5.83;;
10851;SDS011;5479;52.046;6.314;2024-03-17T00:03:45;9.33;;;6.07;;
10851;SDS011;5479;52.046;6.314;2024-03-17T00:06:19;10.83;;;6.30;;
10851;SDS011;5479;52.046;6.314;2024-03-17T00:08:52;9.53;;;5.90;;
10851;SDS011;5479;52.046;6.314;2024-03-17T00:11:21;8.13;;;6.23;;
10851;SDS011;5479;52.046;6.314;2024-03-17T00:13:54;9.37;;;6.47;;
10851;SDS011;5479;52.046;6.314;2024-03-17T00:16:26;11.07;;;6.60;;
10851;SDS011;5479;52.046;6.314;2024-03-17T00:19:00;11.53;;;6.37;;
10851;SDS011;5479;52.046;6.314;2024-03-17T00:21:32;10.03;;;6.10;;
10851;SDS011;5479;52.046;6.314;2024-03-17T00:24:12;10.33;;;5.87;;
10851;SDS011;5479;52.046;6.314;2024-03-17T00:26:40;8.00;;;5.60;;
10851;SDS011;5479;52.046;6.314;2024-03-17T00:29:11;9.07;;;5.27;;
10851;SDS011;5479;52.046;6.314;2024-03-17T00:31:47;8.97;;;5.50;;
10851;SDS011;5479;52.046;6.314;2024-03-17T00:34:16;9.30;;;5.50;;
10851;SDS011;5479;52.046;6.314;2024-03-17T00:36:51;9.23;;;6.37;;
10851;SDS011;5479;52.046;6.314;2024-03-17T00:39:22;8.20;;;5.20;;
10851;SDS011;5479;52.046;6.314;2024-03-17T00:41:55;7.03;;;5.47;;
10851;SDS011;5479;52.046;6.314;2024-03-17T00:44:28;8.40;;;5.20;;
10851;SDS011;5479;52.046;6.314;2024-03-17T00:46:58;7.63;;;5.40;;
10851;SDS011;5479;52.046;6.314;2024-03-17T00:49:30;10.57;;;5.23;;
10851;SDS011;5479;52.046;6.314;2024-03-17T00:51:57;8.03;;;5.20;;
10851;SDS011;5479;52.046;6.314;2024-03-17T00:54:32;9.53;;;6.00;;
10851;SDS011;5479;52.046;6.314;2024-03-17T00:57:07;9.93;;;5.80;;
10851;SDS011;5479;52.046;6.314;2024-03-17T00:59:40;7.10;;;5.33;;
10851;SDS011;5479;52.046;6.314;2024-03-17T01:02:14;8.47;;;5.23;;
10851;SDS011;5479;52.046;6.314;2024-03-17T01:07:21;8.63;;;5.40;;
10851;SDS011;5479;52.046;6.314;2024-03-17T01:09:57;7.40;;;5.77;;
10851;SDS011;5479;52.046;6.314;2024-03-17T01:12:24;7.80;;;5.47;;
10851;SDS011;5479;52.046;6.314;2024-03-17T01:15:00;7.87;;;5.53;;
10851;SDS011;5479;52.046;6.314;2024-03-17T01:17:31;9.33;;;5.40;;
10851;SDS011;5479;52.046;6.314;2024-03-17T01:20:10;10.53;;;5.73;;
10851;SDS011;5479;52.046;6.314;2024-03-17T01:22:37;9.67;;;5.60;;
10851;SDS011;5479;52.046;6.314;2024-03-17T01:25:07;9.00;;;5.23;;
10851;SDS011;5479;52.046;6.314;2024-03-17T01:27:36;8.37;;;5.50;;
10851;SDS011;5479;52.046;6.314;2024-03-17T01:30:15;8.33;;;5.33;;
10851;SDS011;5479;52.046;6.314;2024-03-17T01:32:50;8.77;;;5.53;;
10851;SDS011;5479;52.046;6.314;2024-03-17T01:35:20;8.63;;;5.40;;
10851;SDS011;5479;52.046;6.314;2024-03-17T01:38:00;10.27;;;5.07;;
10851;SDS011;5479;52.046;6.314;2024-03-17T01:40:34;10.87;;;5.67;;
10851;SDS011;5479;52.046;6.314;2024-03-17T01:43:04;8.17;;;5.20;;
10851;SDS011;5479;52.046;6.314;2024-03-17T01:45:36;8.50;;;5.20;;
10851;SDS011;5479;52.046;6.314;2024-03-17T01:48:04;7.90;;;4.70;;
10851;SDS011;5479;52.046;6.314;2024-03-17T01:50:41;6.87;;;4.57;;
10851;SDS011;5479;52.046;6.314;2024-03-17T01:53:14;8.27;;;5.50;;
10851;SDS011;5479;52.046;6.314;2024-03-17T01:55:49;7.83;;;4.97;;
10851;SDS011;5479;52.046;6.314;2024-03-17T01:58:37;10.90;;;5.93;;
10851;SDS011;5479;52.046;6.314;2024-03-17T02:01:12;8.60;;;5.60;;
10851;SDS011;5479;52.046;6.314;2024-03-17T02:03:43;9.30;;;5.93;;
10851;SDS011;5479;52.046;6.314;2024-03-17T02:06:11;10.37;;;6.57;;
10851;SDS011;5479;52.046;6.314;2024-03-17T02:08:47;11.27;;;5.97;;
10851;SDS011;5479;52.046;6.314;2024-03-17T02:11:33;9.40;;;6.85;;
10851;SDS011;5479;52.046;6.314;2024-03-17T02:14:04;10.67;;;6.20;;
10851;SDS011;5479;52.046;6.314;2024-03-17T02:16:34;9.87;;;6.03;;
10851;SDS011;5479;52.046;6.314;2024-03-17T02:19:08;11.20;;;6.30;;
10851;SDS011;5479;52.046;6.314;2024-03-17T02:21:35;10.40;;;5.90;;
10851;SDS011;5479;52.046;6.314;2024-03-17T02:24:09;15.07;;;6.67;;
10851;SDS011;5479;52.046;6.314;2024-03-17T02:26:38;11.43;;;5.70;;
10851;SDS011;5479;52.046;6.314;2024-03-17T02:29:08;10.53;;;6.13;;
10851;SDS011;5479;52.046;6.314;2024-03-17T02:31:45;10.50;;;6.07;;
10851;SDS011;5479;52.046;6.314;2024-03-17T02:34:15;7.33;;;5.70;;
10851;SDS011;5479;52.046;6.314;2024-03-17T02:36:44;11.27;;;6.10;;
10851;SDS011;5479;52.046;6.314;2024-03-17T02:39:17;9.83;;;6.07;;
10851;SDS011;5479;52.046;6.314;2024-03-17T02:42:05;9.83;;;6.50;;
10851;SDS011;5479;52.046;6.314;2024-03-17T02:44:36;9.20;;;6.53;;
10851;SDS011;5479;52.046;6.314;2024-03-17T02:47:07;10.40;;;5.77;;
10851;SDS011;5479;52.046;6.314;2024-03-17T02:49:43;9.83;;;5.80;;
10851;SDS011;5479;52.046;6.314;2024-03-17T02:52:18;11.33;;;6.63;;
10851;SDS011;5479;52.046;6.314;2024-03-17T02:54:52;9.50;;;6.43;;
10851;SDS011;5479;52.046;6.314;2024-03-17T02:57:24;7.93;;;6.03;;
10851;SDS011;5479;52.046;6.314;2024-03-17T03:00:03;8.87;;;5.87;;
10851;SDS011;5479;52.046;6.314;2024-03-17T03:02:39;8.77;;;5.97;;
10851;SDS011;5479;52.046;6.314;2024-03-17T03:05:08;8.73;;;5.53;;
10851;SDS011;5479;52.046;6.314;2024-03-17T03:07:42;9.53;;;5.83;;
10851;SDS011;5479;52.046;6.314;2024-03-17T03:10:13;9.23;;;6.30;;
10851;SDS011;5479;52.046;6.314;2024-03-17T03:12:48;9.10;;;6.23;;
10851;SDS011;5479;52.046;6.314;2024-03-17T03:15:17;10.97;;;6.83;;
10851;SDS011;5479;52.046;6.314;2024-03-17T03:17:54;8.87;;;6.70;;
10851;SDS011;5479;52.046;6.314;2024-03-17T03:20:24;12.67;;;6.93;;
10851;SDS011;5479;52.046;6.314;2024-03-17T03:22:57;11.43;;;7.30;;
10851;SDS011;5479;52.046;6.314;2024-03-17T03:25:35;13.67;;;7.70;;
10851;SDS011;5479;52.046;6.314;2024-03-17T03:28:03;12.03;;;7.27;;
10851;SDS011;5479;52.046;6.314;2024-03-17T03:30:43;9.03;;;6.67;;
10851;SDS011;5479;52.046;6.314;2024-03-17T03:33:16;11.50;;;7.13;;
10851;SDS011;5479;52.046;6.314;2024-03-17T03:35:44;11.93;;;7.50;;
10851;SDS011;5479;52.046;6.314;2024-03-17T03:38:15;11.77;;;7.93;;
10851;SDS011;5479;52.046;6.314;2024-03-17T03:40:45;11.17;;;7.60;;
10851;SDS011;5479;52.046;6.314;2024-03-17T03:43:17;12.10;;;7.63;;
10851;SDS011;5479;52.046;6.314;2024-03-17T03:45:45;10.43;;;7.27;;
10851;SDS011;5479;52.046;6.314;2024-03-17T03:48:27;12.63;;;7.50;;
10851;SDS011;5479;52.046;6.314;2024-03-17T03:50:55;8.97;;;7.20;;
10851;SDS011;5479;52.046;6.314;2024-03-17T03:53:29;9.67;;;7.10;;
10851;SDS011;5479;52.046;6.314;2024-03-17T03:56:18;10.90;;;7.93;;
10851;SDS011;5479;52.046;6.314;2024-03-17T03:58:56;10.47;;;7.37;;
10851;SDS011;5479;52.046;6.314;2024-03-17T04:01:26;11.40;;;7.53;;
10851;SDS011;5479;52.046;6.314;2024-03-17T04:04:01;12.40;;;7.57;;
10851;SDS011;5479;52.046;6.314;2024-03-17T04:06:37;14.30;;;7.33;;
10851;SDS011;5479;52.046;6.314;2024-03-17T04:09:10;10.83;;;7.33;;
10851;SDS011;5479;52.046;6.314;2024-03-17T04:11:49;9.87;;;7.40;;
10851;SDS011;5479;52.046;6.314;2024-03-17T04:14:17;11.63;;;7.47;;
10851;SDS011;5479;52.046;6.314;2024-03-17T04:16:47;18.57;;;8.47;;
10851;SDS011;5479;52.046;6.314;2024-03-17T04:19:20;11.23;;;7.70;;
10851;SDS011;5479;52.046;6.314;2024-03-17T04:21:50;9.83;;;7.37;;
10851;SDS011;5479;52.046;6.314;2024-03-17T04:24:27;12.47;;;7.77;;
10851;SDS011;5479;52.046;6.314;2024-03-17T04:27:00;10.47;;;7.93;;
10851;SDS011;5479;52.046;6.314;2024-03-17T04:29:31;9.90;;;7.43;;
10851;SDS011;5479;52.046;6.314;2024-03-17T04:32:01;13.33;;;8.33;;
10851;SDS011;5479;52.046;6.314;2024-03-17T04:34:31;10.90;;;7.47;;
10851;SDS011;5479;52.046;6.314;2024-03-17T04:37:12;11.20;;;8.10;;
10851;SDS011;5479;52.046;6.314;2024-03-17T04:39:53;11.53;;;8.00;;
10851;SDS011;5479;52.046;6.314;2024-03-17T04:42:30;10.87;;;7.83;;
10851;SDS011;5479;52.046;6.314;2024-03-17T04:44:58;12.43;;;8.20;;
10851;SDS011;5479;52.046;6.314;2024-03-17T04:47:32;12.57;;;8.60;;
10851;SDS011;5479;52.046;6.314;2024-03-17T04:50:00;12.50;;;8.93;;
10851;SDS011;5479;52.046;6.314;2024-03-17T04:52:44;12.70;;;8.40;;
10851;SDS011;5479;52.046;6.314;2024-03-17T04:55:23;11.37;;;8.80;;
10851;SDS011;5479;52.046;6.314;2024-03-17T04:58:06;12.43;;;9.10;;
10851;SDS011;5479;52.046;6.314;2024-03-17T05:00:42;11.30;;;8.60;;
10851;SDS011;5479;52.046;6.314;2024-03-17T05:05:46;12.13;;;8.80;;
10851;SDS011;5479;52.046;6.314;2024-03-17T05:08:16;13.70;;;9.30;;
10851;SDS011;5479;52.046;6.314;2024-03-17T05:10:44;10.53;;;8.37;;
10851;SDS011;5479;52.046;6.314;2024-03-17T05:13:20;12.63;;;9.20;;
10851;SDS011;5479;52.046;6.314;2024-03-17T05:15:49;12.90;;;9.00;;
10851;SDS011;5479;52.046;6.314;2024-03-17T05:18:25;12.40;;;9.13;;
10851;SDS011;5479;52.046;6.314;2024-03-17T05:21:04;13.60;;;8.97;;
10851;SDS011;5479;52.046;6.314;2024-03-17T05:23:40;13.30;;;9.20;;
10851;SDS011;5479;52.046;6.314;2024-03-17T05:26:11;11.27;;;9.17;;
10851;SDS011;5479;52.046;6.314;2024-03-17T05:28:45;15.23;;;9.47;;
10851;SDS011;5479;52.046;6.314;2024-03-17T05:31:20;11.00;;;9.17;;
10851;SDS011;5479;52.046;6.314;2024-03-17T05:33:49;12.53;;;8.67;;
10851;SDS011;5479;52.046;6.314;2024-03-17T05:36:21;12.53;;;8.70;;
10851;SDS011;5479;52.046;6.314;2024-03-17T05:38:57;12.30;;;9.03;;
10851;SDS011;5479;52.046;6.314;2024-03-17T05:41:32;13.50;;;9.10;;
10851;SDS011;5479;52.046;6.314;2024-03-17T05:44:07;11.67;;;8.50;;
10851;SDS011;5479;52.046;6.314;2024-03-17T05:46:52;15.07;;;10.50;;
10851;SDS011;5479;52.046;6.314;2024-03-17T05:49:24;11.20;;;8.80;;
10851;SDS011;5479;52.046;6.314;2024-03-17T05:52:02;12.87;;;9.10;;
10851;SDS011;5479;52.046;6.314;2024-03-17T05:54:33;12.73;;;8.67;;
10851;SDS011;5479;52.046;6.314;2024-03-17T05:57:01;12.63;;;9.77;;
10851;SDS011;5479;52.046;6.314;2024-03-17T05:59:32;13.17;;;9.10;;
10851;SDS011;5479;52.046;6.314;2024-03-17T06:02:05;11.83;;;9.27;;
10851;SDS011;5479;52.046;6.314;2024-03-17T06:04:39;13.83;;;9.57;;
10851;SDS011;5479;52.046;6.314;2024-03-17T06:07:11;13.10;;;9.80;;
10851;SDS011;5479;52.046;6.314;2024-03-17T06:09:49;16.60;;;9.83;;
10851;SDS011;5479;52.046;6.314;2024-03-17T06:12:28;12.87;;;9.30;;
10851;SDS011;5479;52.046;6.314;2024-03-17T06:14:59;12.73;;;9.03;;
10851;SDS011;5479;52.046;6.314;2024-03-17T06:17:28;13.33;;;9.50;;
10851;SDS011;5479;52.046;6.314;2024-03-17T06:19:56;12.40;;;9.60;;
10851;SDS011;5479;52.046;6.314;2024-03-17T06:22:42;13.30;;;9.03;;
10851;SDS011;5479;52.046;6.314;2024-03-17T06:25:29;13.47;;;9.73;;
10851;SDS011;5479;52.046;6.314;2024-03-17T06:28:00;11.83;;;9.50;;
10851;SDS011;5479;52.046;6.314;2024-03-17T06:30:32;14.73;;;9.90;;
10851;SDS011;5479;52.046;6.314;2024-03-17T06:33:02;12.50;;;9.60;;
10851;SDS011;5479;52.046;6.314;2024-03-17T06:35:34;14.40;;;10.00;;
10851;SDS011;5479;52.046;6.314;2024-03-17T06:38:05;12.27;;;9.27;;
10851;SDS011;5479;52.046;6.314;2024-03-17T06:40:36;13.50;;;9.70;;
10851;SDS011;5479;52.046;6.314;2024-03-17T06:43:04;13.10;;;9.70;;
10851;SDS011;5479;52.046;6.314;2024-03-17T06:45:43;17.23;;;10.47;;
10851;SDS011;5479;52.046;6.314;2024-03-17T06:48:11;13.17;;;9.97;;
10851;SDS011;5479;52.046;6.314;2024-03-17T06:50:41;14.53;;;9.70;;
10851;SDS011;5479;52.046;6.314;2024-03-17T06:53:14;12.53;;;10.07;;
10851;SDS011;5479;52.046;6.314;2024-03-17T06:55:43;12.53;;;9.20;;
10851;SDS011;5479;52.046;6.314;2024-03-17T06:58:12;12.67;;;9.53;;
10851;SDS011;5479;52.046;6.314;2024-03-17T07:00:54;12.30;;;8.90;;
10851;SDS011;5479;52.046;6.314;2024-03-17T07:03:24;12.17;;;8.73;;
10851;SDS011;5479;52.046;6.314;2024-03-17T07:05:56;12.43;;;7.60;;
10851;SDS011;5479;52.046;6.314;2024-03-17T07:08:38;9.20;;;7.63;;
10851;SDS011;5479;52.046;6.314;2024-03-17T07:11:19;9.30;;;7.57;;
10851;SDS011;5479;52.046;6.314;2024-03-17T07:14:03;11.33;;;7.80;;
10851;SDS011;5479;52.046;6.314;2024-03-17T07:16:46;12.43;;;8.10;;
10851;SDS011;5479;52.046;6.314;2024-03-17T07:19:18;10.80;;;7.67;;
10851;SDS011;5479;52.046;6.314;2024-03-17T07:21:50;12.27;;;7.67;;
10851;SDS011;5479;52.046;6.314;2024-03-17T07:24:26;11.93;;;7.60;;
10851;SDS011;5479;52.046;6.314;2024-03-17T07:27:15;9.20;;;7.03;;
10851;SDS011;5479;52.046;6.314;2024-03-17T07:29:50;10.13;;;7.27;;
10851;SDS011;5479;52.046;6.314;2024-03-17T07:32:30;9.67;;;7.03;;
10851;SDS011;5479;52.046;6.314;2024-03-17T07:35:04;10.57;;;7.17;;
10851;SDS011;5479;52.046;6.314;2024-03-17T07:37:47;10.03;;;7.27;;
10851;SDS011;5479;52.046;6.314;2024-03-17T07:43:05;9.50;;;7.33;;
10851;SDS011;5479;52.046;6.314;2024-03-17T07:45:44;10.77;;;7.37;;
10851;SDS011;5479;52.046;6.314;2024-03-17T07:48:33;9.87;;;7.57;;
10851;SDS011;5479;52.046;6.314;2024-03-17T07:51:18;9.87;;;6.93;;
10851;SDS011;5479;52.046;6.314;2024-03-17T07:53:50;9.37;;;6.77;;
10851;SDS011;5479;52.046;6.314;2024-03-17T07:56:28;9.90;;;6.87;;
10851;SDS011;5479;52.046;6.314;2024-03-17T07:59:00;9.83;;;6.77;;
10851;SDS011;5479;52.046;6.314;2024-03-17T08:01:31;8.10;;;6.83;;
10851;SDS011;5479;52.046;6.314;2024-03-17T08:04:22;10.03;;;6.93;;
10851;SDS011;5479;52.046;6.314;2024-03-17T08:07:07;8.80;;;7.07;;
10851;SDS011;5479;52.046;6.314;2024-03-17T08:09:39;10.43;;;7.40;;
10851;SDS011;5479;52.046;6.314;2024-03-17T08:12:10;11.40;;;7.23;;
10851;SDS011;5479;52.046;6.314;2024-03-17T08:14:43;9.73;;;6.50;;
10851;SDS011;5479;52.046;6.314;2024-03-17T08:17:15;8.77;;;6.87;;
10851;SDS011;5479;52.046;6.314;2024-03-17T08:20:00;10.10;;;6.23;;
10851;SDS011;5479;52.046;6.314;2024-03-17T08:22:31;8.47;;;6.57;;
10851;SDS011;5479;52.046;6.314;2024-03-17T08:25:13;9.20;;;6.40;;
10851;SDS011;5479;52.046;6.314;2024-03-17T08:27:48;9.87;;;6.63;;
10851;SDS011;5479;52.046;6.314;2024-03-17T08:33:11;9.90;;;7.10;;
10851;SDS011;5479;52.046;6.314;2024-03-17T08:35:40;9.10;;;6.80;;
10851;SDS011;5479;52.046;6.314;2024-03-17T08:38:09;8.60;;;6.40;;
10851;SDS011;5479;52.046;6.314;2024-03-17T08:40:41;8.93;;;6.30;;
10851;SDS011;5479;52.046;6.314;2024-03-17T08:43:21;9.17;;;6.37;;
10851;SDS011;5479;52.046;6.314;2024-03-17T08:45:55;9.73;;;7.03;;
10851;SDS011;5479;52.046;6.314;2024-03-17T08:48:36;9.00;;;6.50;;
10851;SDS011;5479;52.046;6.314;2024-03-17T08:51:21;8.30;;;6.47;;
10851;SDS011;5479;52.046;6.314;2024-03-17T08:53:57;7.67;;;5.90;;
10851;SDS011;5479;52.046;6.314;2024-03-17T08:56:27;11.47;;;6.57;;
10851;SDS011;5479;52.046;6.314;2024-03-17T08:59:02;10.30;;;6.43;;
10851;SDS011;5479;52.046;6.314;2024-03-17T09:01:36;10.37;;;6.03;;
10851;SDS011;5479;52.046;6.314;2024-03-17T09:04:05;8.30;;;5.47;;
10851;SDS011;5479;52.046;6.314;2024-03-17T09:06:35;9.97;;;6.23;;
10851;SDS011;5479;52.046;6.314;2024-03-17T09:09:03;9.50;;;6.37;;
10851;SDS011;5479;52.046;6.314;2024-03-17T09:11:32;7.43;;;5.53;;
10851;SDS011;5479;52.046;6.314;2024-03-17T09:14:00;7.93;;;5.90;;
10851;SDS011;5479;52.046;6.314;2024-03-17T09:16:32;7.63;;;5.97;;
10851;SDS011;5479;52.046;6.314;2024-03-17T09:19:00;7.77;;;5.67;;
10851;SDS011;5479;52.046;6.314;2024-03-17T09:21:40;7.97;;;5.60;;
10851;SDS011;5479;52.046;6.314;2024-03-17T09:24:11;8.07;;;5.97;;
10851;SDS011;5479;52.046;6.314;2024-03-17T09:26:42;8.50;;;6.23;;
10851;SDS011;5479;52.046;6.314;2024-03-17T09:29:13;8.63;;;6.27;;
10851;SDS011;5479;52.046;6.314;2024-03-17T09:31:47;8.10;;;6.07;;
10851;SDS011;5479;52.046;6.314;2024-03-17T09:34:19;9.43;;;6.07;;
10851;SDS011;5479;52.046;6.314;2024-03-17T09:36:53;8.13;;;6.10;;
10851;SDS011;5479;52.046;6.314;2024-03-17T09:39:22;7.90;;;5.97;;
10851;SDS011;5479;52.046;6.314;2024-03-17T09:41:51;9.20;;;6.00;;
10851;SDS011;5479;52.046;6.314;2024-03-17T09:44:20;8.43;;;6.13;;
10851;SDS011;5479;52.046;6.314;2024-03-17T09:46:49;8.73;;;5.70;;
10851;SDS011;5479;52.046;6.314;2024-03-17T09:49:17;8.40;;;5.90;;
10851;SDS011;5479;52.046;6.314;2024-03-17T09:51:46;8.90;;;6.37;;
10851;SDS011;5479;52.046;6.314;2024-03-17T09:54:22;8.63;;;6.30;;
10851;SDS011;5479;52.046;6.314;2024-03-17T09:56:54;9.13;;;5.77;;
10851;SDS011;5479;52.046;6.314;2024-03-17T09:59:25;8.40;;;6.40;;
10851;SDS011;5479;52.046;6.314;2024-03-17T10:01:55;10.07;;;6.27;;
10851;SDS011;5479;52.046;6.314;2024-03-17T10:04:31;8.53;;;5.90;;
10851;SDS011;5479;52.046;6.314;2024-03-17T10:07:00;7.73;;;5.70;;
10851;SDS011;5479;52.046;6.314;2024-03-17T10:09:31;7.23;;;5.43;;
10851;SDS011;5479;52.046;6.314;2024-03-17T10:11:59;8.87;;;6.17;;
10851;SDS011;5479;52.046;6.314;2024-03-17T10:14:27;9.90;;;6.07;;
10851;SDS011;5479;52.046;6.314;2024-03-17T10:16:55;7.60;;;5.73;;
10851;SDS011;5479;52.046;6.314;2024-03-17T10:19:24;8.60;;;5.57;;
10851;SDS011;5479;52.046;6.314;2024-03-17T10:21:58;8.53;;;5.87;;
10851;SDS011;5479;52.046;6.314;2024-03-17T10:24:31;8.63;;;6.20;;
10851;SDS011;5479;52.046;6.314;2024-03-17T10:27:02;8.17;;;5.93;;
10851;SDS011;5479;52.046;6.314;2024-03-17T10:29:31;9.73;;;6.20;;
10851;SDS011;5479;52.046;6.314;2024-03-17T10:32:04;8.40;;;6.40;;
10851;SDS011;5479;52.046;6.314;2024-03-17T10:34:40;8.70;;;6.03;;
10851;SDS011;5479;52.046;6.314;2024-03-17T10:37:14;7.47;;;5.70;;
10851;SDS011;5479;52.046;6.314;2024-03-17T10:39:48;8.63;;;5.70;;
10851;SDS011;5479;52.046;6.314;2024-03-17T10:42:24;7.57;;;5.57;;
10851;SDS011;5479;52.046;6.314;2024-03-17T10:44:54;9.70;;;5.60;;
10851;SDS011;5479;52.046;6.314;2024-03-17T10:47:24;9.43;;;5.87;;
10851;SDS011;5479;52.046;6.314;2024-03-17T10:49:54;8.97;;;5.53;;
10851;SDS011;5479;52.046;6.314;2024-03-17T10:52:23;7.13;;;5.50;;
10851;SDS011;5479;52.046;6.314;2024-03-17T10:55:02;7.80;;;5.50;;
10851;SDS011;5479;52.046;6.314;2024-03-17T10:57:39;8.70;;;5.90;;
10851;SDS011;5479;52.046;6.314;2024-03-17T11:00:12;8.57;;;6.00;;
10851;SDS011;5479;52.046;6.314;2024-03-17T11:02:44;7.63;;;5.80;;
10851;SDS011;5479;52.046;6.314;2024-03-17T11:05:15;9.37;;;6.10;;
10851;SDS011;5479;52.046;6.314;2024-03-17T11:07:49;7.50;;;5.40;;
10851;SDS011;5479;52.046;6.314;2024-03-17T11:10:23;9.30;;;5.90;;
10851;SDS011;5479;52.046;6.314;2024-03-17T11:12:58;8.37;;;5.50;;
10851;SDS011;5479;52.046;6.314;2024-03-17T11:18:28;8.95;;;6.15;;
10851;SDS011;5479;52.046;6.314;2024-03-17T11:23:55;9.03;;;5.23;;
10851;SDS011;5479;52.046;6.314;2024-03-17T11:26:33;9.20;;;5.90;;
10851;SDS011;5479;52.046;6.314;2024-03-17T11:29:02;8.87;;;5.70;;
10851;SDS011;5479;52.046;6.314;2024-03-17T11:31:38;8.03;;;5.40;;
10851;SDS011;5479;52.046;6.314;2024-03-17T11:34:28;8.83;;;5.90;;
10851;SDS011;5479;52.046;6.314;2024-03-17T11:36:58;7.43;;;5.87;;
10851;SDS011;5479;52.046;6.314;2024-03-17T11:42:36;8.77;;;5.60;;
10851;SDS011;5479;52.046;6.314;2024-03-17T11:45:04;7.90;;;5.43;;
10851;SDS011;5479;52.046;6.314;2024-03-17T11:47:34;8.00;;;5.87;;
10851;SDS011;5479;52.046;6.314;2024-03-17T11:50:03;7.97;;;5.90;;
10851;SDS011;5479;52.046;6.314;2024-03-17T11:52:40;9.67;;;6.17;;
10851;SDS011;5479;52.046;6.314;2024-03-17T11:55:14;10.10;;;6.17;;
10851;SDS011;5479;52.046;6.314;2024-03-17T11:57:47;8.53;;;6.13;;
10851;SDS011;5479;52.046;6.314;2024-03-17T12:00:24;7.83;;;5.67;;
10851;SDS011;5479;52.046;6.314;2024-03-17T12:02:52;8.33;;;6.00;;
10851;SDS011;5479;52.046;6.314;2024-03-17T12:05:19;9.67;;;6.07;;
10851;SDS011;5479;52.046;6.314;2024-03-17T12:07:48;8.20;;;6.30;;
10851;SDS011;5479;52.046;6.314;2024-03-17T12:10:21;8.43;;;5.57;;
10851;SDS011;5479;52.046;6.314;2024-03-17T12:12:51;9.67;;;6.07;;
10851;SDS011;5479;52.046;6.314;2024-03-17T12:15:18;9.60;;;6.27;;
10851;SDS011;5479;52.046;6.314;2024-03-17T12:17:51;8.63;;;6.50;;
10851;SDS011;5479;52.046;6.314;2024-03-17T12:20:24;10.47;;;5.70;;
10851;SDS011;5479;52.046;6.314;2024-03-17T12:22:53;8.97;;;5.80;;
10851;SDS011;5479;52.046;6.314;2024-03-17T12:25:21;8.53;;;6.23;;
10851;SDS011;5479;52.046;6.314;2024-03-17T12:27:54;8.90;;;6.40;;
10851;SDS011;5479;52.046;6.314;2024-03-17T12:30:24;8.67;;;5.63;;
10851;SDS011;5479;52.046;6.314;2024-03-17T12:32:53;9.03;;;6.17;;
10851;SDS011;5479;52.046;6.314;2024-03-17T12:35:20;11.47;;;6.50;;
10851;SDS011;5479;52.046;6.314;2024-03-17T12:37:50;8.23;;;6.07;;
10851;SDS011;5479;52.046;6.314;2024-03-17T12:40:17;8.60;;;5.90;;
10851;SDS011;5479;52.046;6.314;2024-03-17T12:42:47;9.50;;;6.00;;
10851;SDS011;5479;52.046;6.314;2024-03-17T12:45:21;9.30;;;6.77;;
10851;SDS011;5479;52.046;6.314;2024-03-17T12:47:48;8.00;;;6.17;;
10851;SDS011;5479;52.046;6.314;2024-03-17T12:50:17;8.10;;;6.50;;
10851;SDS011;5479;52.046;6.314;2024-03-17T12:52:51;8.87;;;6.53;;
10851;SDS011;5479;52.046;6.314;2024-03-17T12:55:22;11.23;;;6.83;;
10851;SDS011;5479;52.046;6.314;2024-03-17T12:58:10;8.73;;;6.83;;
10851;SDS011;5479;52.046;6.314;2024-03-17T13:00:58;8.10;;;6.20;;
10851;SDS011;5479;52.046;6.314;2024-03-17T13:03:27;9.00;;;6.07;;
10851;SDS011;5479;52.046;6.314;2024-03-17T13:06:01;7.97;;;6.20;;
10851;SDS011;5479;52.046;6.314;2024-03-17T13:08:34;9.03;;;6.40;;
10851;SDS011;5479;52.046;6.314;2024-03-17T13:11:03;8.93;;;6.50;;
10851;SDS011;5479;52.046;6.314;2024-03-17T13:13:31;7.93;;;5.97;;
10851;SDS011;5479;52.046;6.314;2024-03-17T13:16:03;8.03;;;6.03;;
10851;SDS011;5479;52.046;6.314;2024-03-17T13:18:33;10.30;;;6.10;;
10851;SDS011;5479;52.046;6.314;2024-03-17T13:21:02;7.80;;;6.17;;
10851;SDS011;5479;52.046;6.314;2024-03-17T13:23:32;9.87;;;6.10;;
10851;SDS011;5479;52.046;6.314;2024-03-17T13:26:01;9.10;;;6.40;;
10851;SDS011;5479;52.046;6.314;2024-03-17T13:28:29;8.47;;;6.03;;
10851;SDS011;5479;52.046;6.314;2024-03-17T13:30:58;9.07;;;6.20;;
10851;SDS011;5479;52.046;6.314;2024-03-17T13:33:27;8.77;;;6.10;;
10851;SDS011;5479;52.046;6.314;2024-03-17T13:35:55;9.00;;;5.83;;
10851;SDS011;5479;52.046;6.314;2024-03-17T13:38:23;8.83;;;6.40;;
10851;SDS011;5479;52.046;6.314;2024-03-17T13:40:51;8.07;;;6.73;;
10851;SDS011;5479;52.046;6.314;2024-03-17T13:43:19;8.70;;;7.03;;
10851;SDS011;5479;52.046;6.314;2024-03-17T13:45:52;11.40;;;6.27;;
10851;SDS011;5479;52.046;6.314;2024-03-17T13:48:20;8.63;;;6.43;;
10851;SDS011;5479;52.046;6.314;2024-03-17T13:50:50;9.00;;;6.37;;
10851;SDS011;5479;52.046;6.314;2024-03-17T13:53:18;10.50;;;6.87;;
10851;SDS011;5479;52.046;6.314;2024-03-17T13:55:51;9.57;;;6.57;;
10851;SDS011;5479;52.046;6.314;2024-03-17T13:58:19;8.20;;;6.63;;
10851;SDS011;5479;52.046;6.314;2024-03-17T14:00:50;9.13;;;6.50;;
10851;SDS011;5479;52.046;6.314;2024-03-17T14:03:18;8.10;;;6.10;;
10851;SDS011;5479;52.046;6.314;2024-03-17T14:05:47;9.37;;;6.93;;
10851;SDS011;5479;52.046;6.314;2024-03-17T14:08:17;9.70;;;6.43;;
10851;SDS011;5479;52.046;6.314;2024-03-17T14:10:45;10.03;;;6.67;;
10851;SDS011;5479;52.046;6.314;2024-03-17T14:13:14;8.87;;;6.70;;
10851;SDS011;5479;52.046;6.314;2024-03-17T14:15:42;8.13;;;6.37;;
10851;SDS011;5479;52.046;6.314;2024-03-17T14:18:10;9.70;;;7.00;;
10851;SDS011;5479;52.046;6.314;2024-03-17T14:20:38;10.53;;;6.60;;
10851;SDS011;5479;52.046;6.314;2024-03-17T14:23:10;8.67;;;6.23;;
10851;SDS011;5479;52.046;6.314;2024-03-17T14:25:40;9.90;;;6.33;;
10851;SDS011;5479;52.046;6.314;2024-03-17T14:28:09;8.80;;;6.67;;
10851;SDS011;5479;52.046;6.314;2024-03-17T14:30:37;8.77;;;6.13;;
10851;SDS011;5479;52.046;6.314;2024-03-17T14:33:05;9.03;;;6.83;;
10851;SDS011;5479;52.046;6.314;2024-03-17T14:35:34;9.93;;;6.10;;
10851;SDS011;5479;52.046;6.314;2024-03-17T14:38:04;8.77;;;6.27;;
10851;SDS011;5479;52.046;6.314;2024-03-17T14:40:33;9.00;;;6.47;;
10851;SDS011;5479;52.046;6.314;2024-03-17T14:43:01;8.10;;;6.07;;
10851;SDS011;5479;52.046;6.314;2024-03-17T14:45:30;8.00;;;6.00;;
10851;SDS011;5479;52.046;6.314;2024-03-17T14:47:58;7.10;;;5.63;;
10851;SDS011;5479;52.046;6.314;2024-03-17T14:52:58;8.60;;;5.80;;
10851;SDS011;5479;52.046;6.314;2024-03-17T14:55:27;9.07;;;6.07;;
10851;SDS011;5479;52.046;6.314;2024-03-17T14:57:57;8.00;;;5.80;;
10851;SDS011;5479;52.046;6.314;2024-03-17T15:00:25;7.50;;;5.63;;
10851;SDS011;5479;52.046;6.314;2024-03-17T15:02:53;8.80;;;6.00;;
10851;SDS011;5479;52.046;6.314;2024-03-17T15:05:21;8.83;;;5.73;;
10851;SDS011;5479;52.046;6.314;2024-03-17T15:07:50;6.90;;;5.67;;
10851;SDS011;5479;52.046;6.314;2024-03-17T15:10:18;7.57;;;5.37;;
10851;SDS011;5479;52.046;6.314;2024-03-17T15:12:47;7.00;;;5.43;;
10851;SDS011;5479;52.046;6.314;2024-03-17T15:15:17;7.83;;;5.77;;
10851;SDS011;5479;52.046;6.314;2024-03-17T15:17:46;8.50;;;5.23;;
10851;SDS011;5479;52.046;6.314;2024-03-17T15:20:19;8.80;;;4.93;;
10851;SDS011;5479;52.046;6.314;2024-03-17T15:22:51;8.17;;;5.03;;
10851;SDS011;5479;52.046;6.314;2024-03-17T15:25:24;7.43;;;5.00;;
10851;SDS011;5479;52.046;6.314;2024-03-17T15:27:52;8.57;;;5.30;;
10851;SDS011;5479;52.046;6.314;2024-03-17T15:30:26;8.87;;;5.47;;
10851;SDS011;5479;52.046;6.314;2024-03-17T15:32:56;7.83;;;5.03;;
10851;SDS011;5479;52.046;6.314;2024-03-17T15:35:25;8.47;;;4.87;;
10851;SDS011;5479;52.046;6.314;2024-03-17T15:37:56;7.00;;;5.20;;
10851;SDS011;5479;52.046;6.314;2024-03-17T15:40:24;7.30;;;4.73;;
10851;SDS011;5479;52.046;6.314;2024-03-17T15:42:52;9.60;;;4.73;;
10851;SDS011;5479;52.046;6.314;2024-03-17T15:45:23;6.43;;;4.63;;
10851;SDS011;5479;52.046;6.314;2024-03-17T15:47:53;7.67;;;4.70;;
10851;SDS011;5479;52.046;6.314;2024-03-17T15:50:24;7.60;;;4.97;;